全部
Bravalla Air Base Airport (Norrkoping) ESCK 天氣
There is no TAF data available at ESCK. Showing TAF data for ESSP (6 mi E).
NRK終端機場天氣預報(ESCK無資料)
| Date | Time (CEST) | Flight Rules | Wind Dir. | Speed | Type | Height AGL (ft) | Visibility | Remarks | ||||||
|---|---|---|---|---|---|---|---|---|---|---|---|---|---|---|
There is no METAR data available at ESCK. Showing METAR data for ESSP (6 mi E).
NRK近期METAR歷史資料(ESCK無資料)
| Date | Time (CEST) | Flight Rules | Wind Dir. | Speed | Type | Height AGL (ft) | Visibility | Temp (°C) | Temp (°F) | Dew Point (°C) | Dew Point (°F) | Rel. Humid. | Pressure | Density Altitude | Remarks |
|---|---|---|---|---|---|---|---|---|---|---|---|---|---|---|---|
| 06-五月 | 04:20 | VFR | Variable | 1 kt | 10000 meters | -3° | 26° | -6° | 21° | 80% | 1013 mb | -2,122 ft | |||
| 06-五月 | 03:50 | VFR | Variable | 1 kt | 10000 meters | -2° | 28° | -5° | 23° | 80% | 1012 mb | -1,972 ft | |||
| 06-五月 | 03:20 | VFR | Variable | 2 kt | 10000 meters | -2° | 28° | -5° | 23° | 80% | 1012 mb | -1,972 ft | |||
| 06-五月 | 02:50 | VFR | Calm | 10000 meters | -2° | 28° | -6° | 21° | 74% | 1012 mb | -1,972 ft | ||||
| 06-五月 | 02:20 | VFR | 100° | 3 kt | 10000 meters | -2° | 28° | -5° | 23° | 80% | 1012 mb | -1,972 ft | |||
| 06-五月 | 01:50 | VFR | 140° | 2 kt | 10000 meters | -1° | 30° | -5° | 23° | 74% | 1012 mb | -1,852 ft | |||
| 06-五月 | 01:20 | VFR | Calm | 10000 meters | 0° | 32° | -5° | 23° | 69% | 1012 mb | -1,732 ft | ||||
| 06-五月 | 00:50 | VFR | Calm | 10000 meters | 0° | 32° | -5° | 23° | 69% | 1011 mb | -1,703 ft | ||||
| 06-五月 | 00:20 | VFR | Calm | 10000 meters | 0° | 32° | -5° | 23° | 69% | 1011 mb | -1,703 ft | ||||
| 05-五月 | 23:50 | VFR | Calm | 10000 meters | 1° | 33° | -5° | 23° | 64% | 1011 mb | -1,583 ft | ||||
| 05-五月 | 23:20 | VFR | Calm | 10000 meters | 1° | 33° | -5° | 23° | 64% | 1011 mb | -1,583 ft | ||||
| 05-五月 | 22:50 | VFR | Variable | 2 kt | 10000 meters | 2° | 35° | -6° | 21° | 55% | 1011 mb | -1,463 ft | |||
| 05-五月 | 22:20 | VFR | 280° | 3 kt | 10000 meters | 3° | 37° | -6° | 21° | 51% | 1011 mb | -1,343 ft | |||
| 05-五月 | 21:50 | VFR | 290° | 3 kt | 10000 meters | 4° | 39° | -7° | 19° | 44% | 1011 mb | -1,223 ft | |||
| 05-五月 | 21:20 | VFR | 290° | 5 kt | 10000 meters | 6° | 42° | -7° | 19° | 39% | 1010 mb | -953 ft | |||
| 05-五月 | 20:50 | VFR | 300° | 7 kt | 10000 meters | 8° | 46° | -8° | 17° | 31% | 1010 mb | -713 ft | |||
| 05-五月 | 20:20 | VFR | 310° | 8 kt | 10000 meters | 9° | 48° | -8° | 17° | 29% | 1010 mb | -593 ft | |||
| 05-五月 | 19:50 | VFR | 300° | 10 kt | 10000 meters | 10° | 50° | -9° | 15° | 25% | 1010 mb | -473 ft | |||
| 05-五月 | 19:20 | VFR | 300° | 12 kt | 10000 meters | 10° | 50° | -9° | 15° | 25% | 1009 mb | -444 ft | |||
| 05-五月 | 18:50 | VFR | 300° | 10 kt | 10000 meters | 11° | 51° | -9° | 15° | 24% | 1009 mb | -324 ft | |||
| 05-五月 | 18:20 | VFR | 270° | 11 kt | 10000 meters | 11° | 51° | -8° | 17° | 25% | 1009 mb | -324 ft | |||
| 05-五月 | 17:50 | VFR | 300° | 13 kt | 10000 meters | 11° | 51° | -9° | 15° | 24% | 1009 mb | -324 ft | |||
| 05-五月 | 17:20 | VFR | 270° | 13 kt | 10000 meters | 11° | 51° | -7° | 19° | 28% | 1009 mb | -324 ft | |||
| 05-五月 | 16:50 | VFR | 280° | 16 kt | 10000 meters | 11° | 51° | -8° | 17° | 25% | 1009 mb | -324 ft |
登入
| 您的瀏覽器不支援. 升級您的瀏覽器 |
